sensor_id;sensor_type;location;lat;lon;timestamp;temperature;humidity
19880;DHT22;10102;50.828;4.416;2022-08-11T00:01:53;24.40;89.60
19880;DHT22;10102;50.828;4.416;2022-08-11T00:04:22;24.30;89.70
19880;DHT22;10102;50.828;4.416;2022-08-11T00:06:49;24.10;96.40
19880;DHT22;10102;50.828;4.416;2022-08-11T00:09:19;23.90;91.50
19880;DHT22;10102;50.828;4.416;2022-08-11T00:11:51;23.80;97.10
19880;DHT22;10102;50.828;4.416;2022-08-11T00:14:22;23.90;91.00
19880;DHT22;10102;50.828;4.416;2022-08-11T00:19:28;23.70;98.40
19880;DHT22;10102;50.828;4.416;2022-08-11T00:21:55;23.70;91.40
19880;DHT22;10102;50.828;4.416;2022-08-11T00:24:23;23.40;98.10
19880;DHT22;10102;50.828;4.416;2022-08-11T00:26:51;23.60;92.00
19880;DHT22;10102;50.828;4.416;2022-08-11T00:29:19;23.60;92.10
19880;DHT22;10102;50.828;4.416;2022-08-11T00:31:52;23.80;98.40
19880;DHT22;10102;50.828;4.416;2022-08-11T00:34:21;23.90;93.20
19880;DHT22;10102;50.828;4.416;2022-08-11T00:36:49;23.60;92.30
19880;DHT22;10102;50.828;4.416;2022-08-11T00:39:16;23.70;98.60
19880;DHT22;10102;50.828;4.416;2022-08-11T00:41:46;23.60;92.50
19880;DHT22;10102;50.828;4.416;2022-08-11T00:47:13;23.60;99.30
19880;DHT22;10102;50.828;4.416;2022-08-11T01:09:32;22.80;94.90
19880;DHT22;10102;50.828;4.416;2022-08-11T01:12:29;23.40;96.20
19880;DHT22;10102;50.828;4.416;2022-08-11T01:29:08;22.60;99.90
19880;DHT22;10102;50.828;4.416;2022-08-11T01:43:09;22.70;99.90
19880;DHT22;10102;50.828;4.416;2022-08-11T01:46:08;22.60;99.90
19880;DHT22;10102;50.828;4.416;2022-08-11T01:49:29;22.50;99.90
19880;DHT22;10102;50.828;4.416;2022-08-11T01:54:26;22.40;99.90
19880;DHT22;10102;50.828;4.416;2022-08-11T01:57:39;22.40;99.90
19880;DHT22;10102;50.828;4.416;2022-08-11T02:00:11;22.20;99.90
19880;DHT22;10102;50.828;4.416;2022-08-11T02:08:54;22.10;99.90
19880;DHT22;10102;50.828;4.416;2022-08-11T02:11:31;22.10;99.90
19880;DHT22;10102;50.828;4.416;2022-08-11T02:22:12;22.10;99.90
19880;DHT22;10102;50.828;4.416;2022-08-11T02:25:06;21.80;99.90
19880;DHT22;10102;50.828;4.416;2022-08-11T02:27:44;21.90;99.90
19880;DHT22;10102;50.828;4.416;2022-08-11T02:30:14;21.40;99.90
19880;DHT22;10102;50.828;4.416;2022-08-11T02:33:15;21.70;99.90
19880;DHT22;10102;50.828;4.416;2022-08-11T02:35:56;21.70;99.90
19880;DHT22;10102;50.828;4.416;2022-08-11T02:41:25;21.70;99.90
19880;DHT22;10102;50.828;4.416;2022-08-11T02:44:19;21.60;99.90
19880;DHT22;10102;50.828;4.416;2022-08-11T02:58:13;21.20;99.90
19880;DHT22;10102;50.828;4.416;2022-08-11T03:01:03;20.90;99.90
19880;DHT22;10102;50.828;4.416;2022-08-11T03:06:34;20.80;99.90
19880;DHT22;10102;50.828;4.416;2022-08-11T03:12:15;20.80;99.90
19880;DHT22;10102;50.828;4.416;2022-08-11T03:15:09;21.00;99.90
19880;DHT22;10102;50.828;4.416;2022-08-11T03:29:33;20.30;99.90
19880;DHT22;10102;50.828;4.416;2022-08-11T03:35:01;20.40;99.90
19880;DHT22;10102;50.828;4.416;2022-08-11T03:43:46;20.40;99.90
19880;DHT22;10102;50.828;4.416;2022-08-11T03:51:52;20.40;99.90
19880;DHT22;10102;50.828;4.416;2022-08-11T03:54:28;20.40;99.90
19880;DHT22;10102;50.828;4.416;2022-08-11T03:57:31;20.40;99.90
19880;DHT22;10102;50.828;4.416;2022-08-11T04:00:34;20.40;99.90
19880;DHT22;10102;50.828;4.416;2022-08-11T04:03:35;20.40;99.90
19880;DHT22;10102;50.828;4.416;2022-08-11T04:29:24;20.10;99.90
19880;DHT22;10102;50.828;4.416;2022-08-11T04:37:37;20.20;99.90
19880;DHT22;10102;50.828;4.416;2022-08-11T05:13:05;20.10;99.90
19880;DHT22;10102;50.828;4.416;2022-08-11T05:16:11;20.10;99.90
19880;DHT22;10102;50.828;4.416;2022-08-11T05:18:57;20.20;99.90
19880;DHT22;10102;50.828;4.416;2022-08-11T05:21:47;20.40;99.90
19880;DHT22;10102;50.828;4.416;2022-08-11T05:24:50;20.30;99.90
19880;DHT22;10102;50.828;4.416;2022-08-11T05:27:52;20.60;99.90
19880;DHT22;10102;50.828;4.416;2022-08-11T05:30:41;20.50;99.90
19880;DHT22;10102;50.828;4.416;2022-08-11T05:33:44;20.30;99.90
19880;DHT22;10102;50.828;4.416;2022-08-11T05:36:49;20.60;99.90
19880;DHT22;10102;50.828;4.416;2022-08-11T05:39:23;20.70;99.90
19880;DHT22;10102;50.828;4.416;2022-08-11T05:42:08;20.90;99.90
19880;DHT22;10102;50.828;4.416;2022-08-11T05:45:00;20.90;99.90
19880;DHT22;10102;50.828;4.416;2022-08-11T05:47:49;21.00;99.90
19880;DHT22;10102;50.828;4.416;2022-08-11T05:50:34;20.90;99.90
19880;DHT22;10102;50.828;4.416;2022-08-11T05:53:19;21.00;99.90
19880;DHT22;10102;50.828;4.416;2022-08-11T05:56:07;20.80;99.90
19880;DHT22;10102;50.828;4.416;2022-08-11T05:58:54;21.20;99.90
19880;DHT22;10102;50.828;4.416;2022-08-11T06:01:27;18.50;99.90
19880;DHT22;10102;50.828;4.416;2022-08-11T06:03:56;21.20;99.90
19880;DHT22;10102;50.828;4.416;2022-08-11T06:07:07;21.30;99.90
19880;DHT22;10102;50.828;4.416;2022-08-11T06:09:46;21.50;99.90
19880;DHT22;10102;50.828;4.416;2022-08-11T06:14:43;21.50;99.90
19880;DHT22;10102;50.828;4.416;2022-08-11T06:17:11;21.70;99.90
19880;DHT22;10102;50.828;4.416;2022-08-11T06:19:42;21.70;99.90
19880;DHT22;10102;50.828;4.416;2022-08-11T06:22:11;21.90;99.90
19880;DHT22;10102;50.828;4.416;2022-08-11T06:24:40;20.90;99.90
19880;DHT22;10102;50.828;4.416;2022-08-11T06:27:07;21.90;99.90
19880;DHT22;10102;50.828;4.416;2022-08-11T06:29:36;22.00;99.90
19880;DHT22;10102;50.828;4.416;2022-08-11T06:32:06;22.20;99.90
19880;DHT22;10102;50.828;4.416;2022-08-11T06:38:09;22.60;99.90
19880;DHT22;10102;50.828;4.416;2022-08-11T06:40:47;22.50;99.90
19880;DHT22;10102;50.828;4.416;2022-08-11T06:46:40;22.90;99.90
19880;DHT22;10102;50.828;4.416;2022-08-11T06:49:08;23.30;99.90
19880;DHT22;10102;50.828;4.416;2022-08-11T06:51:55;23.50;99.90
19880;DHT22;10102;50.828;4.416;2022-08-11T06:54:23;23.30;99.90
19880;DHT22;10102;50.828;4.416;2022-08-11T06:56:49;23.50;99.90
19880;DHT22;10102;50.828;4.416;2022-08-11T06:59:35;23.60;99.90
19880;DHT22;10102;50.828;4.416;2022-08-11T07:02:27;23.70;99.90
19880;DHT22;10102;50.828;4.416;2022-08-11T07:08:26;24.00;99.90
19880;DHT22;10102;50.828;4.416;2022-08-11T07:12:01;24.20;99.90
19880;DHT22;10102;50.828;4.416;2022-08-11T07:14:53;24.20;99.90
19880;DHT22;10102;50.828;4.416;2022-08-11T07:17:44;24.40;99.90
19880;DHT22;10102;50.828;4.416;2022-08-11T07:20:14;24.50;99.90
19880;DHT22;10102;50.828;4.416;2022-08-11T07:23:01;24.70;99.90
19880;DHT22;10102;50.828;4.416;2022-08-11T07:25:49;24.70;99.90
19880;DHT22;10102;50.828;4.416;2022-08-11T07:28:41;24.80;99.90
19880;DHT22;10102;50.828;4.416;2022-08-11T07:31:42;24.90;99.90
19880;DHT22;10102;50.828;4.416;2022-08-11T07:34:32;24.90;99.90
19880;DHT22;10102;50.828;4.416;2022-08-11T07:37:13;25.00;99.90
19880;DHT22;10102;50.828;4.416;2022-08-11T07:39:43;24.90;99.90
19880;DHT22;10102;50.828;4.416;2022-08-11T07:42:11;25.00;99.90
19880;DHT22;10102;50.828;4.416;2022-08-11T07:44:40;25.10;99.90
19880;DHT22;10102;50.828;4.416;2022-08-11T07:47:25;25.30;99.90
19880;DHT22;10102;50.828;4.416;2022-08-11T07:50:10;25.20;99.90
19880;DHT22;10102;50.828;4.416;2022-08-11T07:52:57;25.30;99.90
19880;DHT22;10102;50.828;4.416;2022-08-11T07:55:24;25.50;99.90
19880;DHT22;10102;50.828;4.416;2022-08-11T07:57:51;25.20;99.90
19880;DHT22;10102;50.828;4.416;2022-08-11T08:00:51;25.50;99.90
19880;DHT22;10102;50.828;4.416;2022-08-11T08:03:36;25.70;99.90
19880;DHT22;10102;50.828;4.416;2022-08-11T08:06:22;25.70;99.90
19880;DHT22;10102;50.828;4.416;2022-08-11T08:09:07;25.70;99.90
19880;DHT22;10102;50.828;4.416;2022-08-11T08:11:52;26.00;99.90
19880;DHT22;10102;50.828;4.416;2022-08-11T08:14:36;25.70;99.90
19880;DHT22;10102;50.828;4.416;2022-08-11T08:17:22;26.20;99.90
19880;DHT22;10102;50.828;4.416;2022-08-11T08:20:10;26.20;99.90
19880;DHT22;10102;50.828;4.416;2022-08-11T08:22:37;26.40;99.40
19880;DHT22;10102;50.828;4.416;2022-08-11T08:25:04;26.50;98.60
19880;DHT22;10102;50.828;4.416;2022-08-11T08:27:30;26.30;99.10
19880;DHT22;10102;50.828;4.416;2022-08-11T08:29:56;26.60;98.90
19880;DHT22;10102;50.828;4.416;2022-08-11T08:32:41;27.00;98.90
19880;DHT22;10102;50.828;4.416;2022-08-11T08:35:10;26.50;99.90
19880;DHT22;10102;50.828;4.416;2022-08-11T08:37:36;26.80;98.70
19880;DHT22;10102;50.828;4.416;2022-08-11T08:40:05;26.80;97.80
19880;DHT22;10102;50.828;4.416;2022-08-11T08:42:36;26.80;97.00
19880;DHT22;10102;50.828;4.416;2022-08-11T08:45:05;28.10;96.90
19880;DHT22;10102;50.828;4.416;2022-08-11T08:50:05;27.10;95.40
19880;DHT22;10102;50.828;4.416;2022-08-11T08:52:38;23.80;94.50
19880;DHT22;10102;50.828;4.416;2022-08-11T08:55:06;29.50;96.00
19880;DHT22;10102;50.828;4.416;2022-08-11T08:57:34;27.60;99.90
19880;DHT22;10102;50.828;4.416;2022-08-11T09:00:02;27.50;95.00
19880;DHT22;10102;50.828;4.416;2022-08-11T09:02:28;27.60;94.60
19880;DHT22;10102;50.828;4.416;2022-08-11T09:04:54;27.80;94.80
19880;DHT22;10102;50.828;4.416;2022-08-11T09:07:22;27.90;94.10
19880;DHT22;10102;50.828;4.416;2022-08-11T09:09:50;27.90;99.30
19880;DHT22;10102;50.828;4.416;2022-08-11T09:12:18;28.00;93.00
19880;DHT22;10102;50.828;4.416;2022-08-11T09:14:47;27.80;92.00
19880;DHT22;10102;50.828;4.416;2022-08-11T09:17:44;28.10;91.50
19880;DHT22;10102;50.828;4.416;2022-08-11T09:20:25;28.20;91.20
19880;DHT22;10102;50.828;4.416;2022-08-11T09:22:58;28.40;90.90
19880;DHT22;10102;50.828;4.416;2022-08-11T09:25:43;28.30;90.50
19880;DHT22;10102;50.828;4.416;2022-08-11T09:28:28;28.50;89.60
19880;DHT22;10102;50.828;4.416;2022-08-11T09:30:56;28.60;89.40
19880;DHT22;10102;50.828;4.416;2022-08-11T09:33:27;28.60;90.10
19880;DHT22;10102;50.828;4.416;2022-08-11T09:35:55;28.70;88.60
19880;DHT22;10102;50.828;4.416;2022-08-11T09:38:23;28.80;88.70
19880;DHT22;10102;50.828;4.416;2022-08-11T09:41:10;28.90;88.40
19880;DHT22;10102;50.828;4.416;2022-08-11T09:43:42;28.80;86.80
19880;DHT22;10102;50.828;4.416;2022-08-11T09:46:28;29.00;89.60
19880;DHT22;10102;50.828;4.416;2022-08-11T09:48:58;29.10;89.30
19880;DHT22;10102;50.828;4.416;2022-08-11T09:51:27;29.20;88.10
19880;DHT22;10102;50.828;4.416;2022-08-11T09:53:54;29.30;88.60
19880;DHT22;10102;50.828;4.416;2022-08-11T09:56:22;29.40;86.50
19880;DHT22;10102;50.828;4.416;2022-08-11T09:59:08;29.50;86.50
19880;DHT22;10102;50.828;4.416;2022-08-11T10:01:48;29.60;85.70
19880;DHT22;10102;50.828;4.416;2022-08-11T10:04:17;29.50;84.30
19880;DHT22;10102;50.828;4.416;2022-08-11T10:06:52;29.60;84.70
19880;DHT22;10102;50.828;4.416;2022-08-11T10:09:32;29.80;93.90
19880;DHT22;10102;50.828;4.416;2022-08-11T10:12:01;29.70;85.00
19880;DHT22;10102;50.828;4.416;2022-08-11T10:14:29;29.80;84.20
19880;DHT22;10102;50.828;4.416;2022-08-11T10:17:15;30.00;83.70
19880;DHT22;10102;50.828;4.416;2022-08-11T10:19:42;29.90;93.00
19880;DHT22;10102;50.828;4.416;2022-08-11T10:22:09;30.00;83.60
19880;DHT22;10102;50.828;4.416;2022-08-11T10:24:55;30.20;82.70
19880;DHT22;10102;50.828;4.416;2022-08-11T10:27:41;30.30;81.30
19880;DHT22;10102;50.828;4.416;2022-08-11T10:30:09;30.40;81.20
19880;DHT22;10102;50.828;4.416;2022-08-11T10:32:54;30.40;79.60
19880;DHT22;10102;50.828;4.416;2022-08-11T10:35:41;30.50;80.10
19880;DHT22;10102;50.828;4.416;2022-08-11T10:38:09;30.70;80.50
19880;DHT22;10102;50.828;4.416;2022-08-11T10:40:39;30.90;91.40
19880;DHT22;10102;50.828;4.416;2022-08-11T10:43:06;30.80;80.00
19880;DHT22;10102;50.828;4.416;2022-08-11T10:45:44;30.80;79.30
19880;DHT22;10102;50.828;4.416;2022-08-11T10:48:34;31.00;79.50
19880;DHT22;10102;50.828;4.416;2022-08-11T10:51:01;31.00;78.60
19880;DHT22;10102;50.828;4.416;2022-08-11T10:53:47;31.30;90.10
19880;DHT22;10102;50.828;4.416;2022-08-11T10:56:37;31.30;77.80
19880;DHT22;10102;50.828;4.416;2022-08-11T10:59:23;31.50;77.20
19880;DHT22;10102;50.828;4.416;2022-08-11T11:01:52;31.60;76.30
19880;DHT22;10102;50.828;4.416;2022-08-11T11:07:10;31.70;76.40
19880;DHT22;10102;50.828;4.416;2022-08-11T11:09:57;32.40;87.10
19880;DHT22;10102;50.828;4.416;2022-08-11T11:12:42;32.30;74.50
19880;DHT22;10102;50.828;4.416;2022-08-11T11:15:29;32.70;73.40
19880;DHT22;10102;50.828;4.416;2022-08-11T11:18:21;33.10;71.30
19880;DHT22;10102;50.828;4.416;2022-08-11T11:29:28;38.20;60.50
19880;DHT22;10102;50.828;4.416;2022-08-11T11:33:16;39.80;56.90
19880;DHT22;10102;50.828;4.416;2022-08-11T11:37:52;44.80;49.40
19880;DHT22;10102;50.828;4.416;2022-08-11T11:40:19;45.60;47.20
19880;DHT22;10102;50.828;4.416;2022-08-11T11:42:48;47.00;45.30
19880;DHT22;10102;50.828;4.416;2022-08-11T11:45:17;48.00;44.10
19880;DHT22;10102;50.828;4.416;2022-08-11T11:47:43;48.70;42.40
19880;DHT22;10102;50.828;4.416;2022-08-11T11:50:10;49.50;41.70
19880;DHT22;10102;50.828;4.416;2022-08-11T11:52:38;50.30;40.40
19880;DHT22;10102;50.828;4.416;2022-08-11T11:55:06;51.10;39.30
19880;DHT22;10102;50.828;4.416;2022-08-11T11:57:33;52.50;39.00
19880;DHT22;10102;50.828;4.416;2022-08-11T12:00:18;52.10;37.60
19880;DHT22;10102;50.828;4.416;2022-08-11T12:03:06;52.30;37.50
19880;DHT22;10102;50.828;4.416;2022-08-11T12:05:35;52.40;37.00
19880;DHT22;10102;50.828;4.416;2022-08-11T12:08:02;52.80;36.50
19880;DHT22;10102;50.828;4.416;2022-08-11T12:10:39;52.30;36.60
19880;DHT22;10102;50.828;4.416;2022-08-11T12:13:05;53.50;36.50
19880;DHT22;10102;50.828;4.416;2022-08-11T12:15:51;54.50;35.80
19880;DHT22;10102;50.828;4.416;2022-08-11T12:18:17;53.80;35.00
19880;DHT22;10102;50.828;4.416;2022-08-11T12:20:44;53.90;35.10
19880;DHT22;10102;50.828;4.416;2022-08-11T12:23:11;54.10;34.70
19880;DHT22;10102;50.828;4.416;2022-08-11T12:25:57;54.30;35.40
19880;DHT22;10102;50.828;4.416;2022-08-11T12:28:41;54.80;34.20
19880;DHT22;10102;50.828;4.416;2022-08-11T12:31:07;53.00;34.20
19880;DHT22;10102;50.828;4.416;2022-08-11T12:33:36;52.70;34.90
19880;DHT22;10102;50.828;4.416;2022-08-11T12:36:02;53.30;35.10
19880;DHT22;10102;50.828;4.416;2022-08-11T12:38:29;53.80;34.70
19880;DHT22;10102;50.828;4.416;2022-08-11T12:40:55;53.60;35.00
19880;DHT22;10102;50.828;4.416;2022-08-11T12:43:44;54.10;34.40
19880;DHT22;10102;50.828;4.416;2022-08-11T12:46:36;54.20;33.80
19880;DHT22;10102;50.828;4.416;2022-08-11T12:49:17;55.20;33.50
19880;DHT22;10102;50.828;4.416;2022-08-11T12:52:06;56.60;32.90
19880;DHT22;10102;50.828;4.416;2022-08-11T12:57:10;55.80;32.90
19880;DHT22;10102;50.828;4.416;2022-08-11T12:59:55;56.70;32.30
19880;DHT22;10102;50.828;4.416;2022-08-11T13:02:41;56.80;31.80
19880;DHT22;10102;50.828;4.416;2022-08-11T13:05:25;56.60;31.80
19880;DHT22;10102;50.828;4.416;2022-08-11T13:07:51;55.50;31.90
19880;DHT22;10102;50.828;4.416;2022-08-11T13:10:18;56.30;32.00
19880;DHT22;10102;50.828;4.416;2022-08-11T13:13:06;57.10;31.80
19880;DHT22;10102;50.828;4.416;2022-08-11T13:15:33;58.10;31.00
19880;DHT22;10102;50.828;4.416;2022-08-11T13:18:01;59.00;31.40
19880;DHT22;10102;50.828;4.416;2022-08-11T13:20:28;58.70;30.00
19880;DHT22;10102;50.828;4.416;2022-08-11T13:22:56;58.20;30.50
19880;DHT22;10102;50.828;4.416;2022-08-11T13:25:24;57.60;30.30
19880;DHT22;10102;50.828;4.416;2022-08-11T13:27:55;57.90;30.70
19880;DHT22;10102;50.828;4.416;2022-08-11T13:30:28;58.90;30.60
19880;DHT22;10102;50.828;4.416;2022-08-11T13:33:14;58.20;30.40
19880;DHT22;10102;50.828;4.416;2022-08-11T13:35:46;55.90;31.20
19880;DHT22;10102;50.828;4.416;2022-08-11T13:38:16;55.90;31.70
19880;DHT22;10102;50.828;4.416;2022-08-11T13:40:44;55.00;32.40
19880;DHT22;10102;50.828;4.416;2022-08-11T13:43:12;56.10;32.10
19880;DHT22;10102;50.828;4.416;2022-08-11T13:45:39;56.80;31.60
19880;DHT22;10102;50.828;4.416;2022-08-11T13:48:08;56.70;30.90
19880;DHT22;10102;50.828;4.416;2022-08-11T13:50:35;58.10;31.20
19880;DHT22;10102;50.828;4.416;2022-08-11T13:53:21;57.90;30.90
19880;DHT22;10102;50.828;4.416;2022-08-11T13:55:48;57.40;30.60
19880;DHT22;10102;50.828;4.416;2022-08-11T13:58:14;57.70;30.70
19880;DHT22;10102;50.828;4.416;2022-08-11T14:00:43;58.70;30.10
19880;DHT22;10102;50.828;4.416;2022-08-11T14:03:11;58.30;30.00
19880;DHT22;10102;50.828;4.416;2022-08-11T14:05:49;58.00;30.20
19880;DHT22;10102;50.828;4.416;2022-08-11T14:08:20;58.30;30.10
19880;DHT22;10102;50.828;4.416;2022-08-11T14:10:48;58.90;30.20
19880;DHT22;10102;50.828;4.416;2022-08-11T14:13:40;59.00;29.80
19880;DHT22;10102;50.828;4.416;2022-08-11T14:16:15;59.40;30.00
19880;DHT22;10102;50.828;4.416;2022-08-11T14:18:47;59.10;30.00
19880;DHT22;10102;50.828;4.416;2022-08-11T14:21:16;57.60;30.50
19880;DHT22;10102;50.828;4.416;2022-08-11T14:24:02;57.30;30.80
19880;DHT22;10102;50.828;4.416;2022-08-11T14:26:29;57.80;30.40
19880;DHT22;10102;50.828;4.416;2022-08-11T14:29:05;58.30;30.00
19880;DHT22;10102;50.828;4.416;2022-08-11T14:31:35;58.00;29.90
19880;DHT22;10102;50.828;4.416;2022-08-11T14:34:04;58.70;29.90
19880;DHT22;10102;50.828;4.416;2022-08-11T14:36:35;58.80;30.00
19880;DHT22;10102;50.828;4.416;2022-08-11T14:39:09;59.10;29.60
19880;DHT22;10102;50.828;4.416;2022-08-11T14:41:44;58.80;29.90
19880;DHT22;10102;50.828;4.416;2022-08-11T14:44:31;58.90;29.80
19880;DHT22;10102;50.828;4.416;2022-08-11T14:47:17;58.50;29.40
19880;DHT22;10102;50.828;4.416;2022-08-11T14:49:43;58.10;29.60
19880;DHT22;10102;50.828;4.416;2022-08-11T14:52:14;57.90;29.50
19880;DHT22;10102;50.828;4.416;2022-08-11T14:54:46;57.80;29.70
19880;DHT22;10102;50.828;4.416;2022-08-11T14:57:34;58.40;29.70
19880;DHT22;10102;50.828;4.416;2022-08-11T15:00:02;58.30;29.60
19880;DHT22;10102;50.828;4.416;2022-08-11T15:02:29;58.30;29.60
19880;DHT22;10102;50.828;4.416;2022-08-11T15:05:14;57.70;29.70
19880;DHT22;10102;50.828;4.416;2022-08-11T15:07:40;58.00;29.60
19880;DHT22;10102;50.828;4.416;2022-08-11T15:10:08;57.70;29.80
19880;DHT22;10102;50.828;4.416;2022-08-11T15:12:36;58.00;29.50
19880;DHT22;10102;50.828;4.416;2022-08-11T15:15:05;58.10;29.90
19880;DHT22;10102;50.828;4.416;2022-08-11T15:17:52;58.00;29.50
19880;DHT22;10102;50.828;4.416;2022-08-11T15:20:19;57.00;29.70
19880;DHT22;10102;50.828;4.416;2022-08-11T15:23:05;55.70;30.30
19880;DHT22;10102;50.828;4.416;2022-08-11T15:25:55;56.30;30.80
19880;DHT22;10102;50.828;4.416;2022-08-11T15:28:22;56.60;30.20
19880;DHT22;10102;50.828;4.416;2022-08-11T15:31:07;56.70;30.10
19880;DHT22;10102;50.828;4.416;2022-08-11T15:34:10;56.50;30.10
19880;DHT22;10102;50.828;4.416;2022-08-11T15:36:57;56.50;30.10
19880;DHT22;10102;50.828;4.416;2022-08-11T15:40:24;56.70;30.30
19880;DHT22;10102;50.828;4.416;2022-08-11T15:43:09;56.40;30.40
19880;DHT22;10102;50.828;4.416;2022-08-11T15:45:55;56.70;30.50
19880;DHT22;10102;50.828;4.416;2022-08-11T15:51:54;57.40;30.30
19880;DHT22;10102;50.828;4.416;2022-08-11T15:53:57;57.20;30.40
19880;DHT22;10102;50.828;4.416;2022-08-11T15:56:25;57.60;30.10
19880;DHT22;10102;50.828;4.416;2022-08-11T15:58:53;57.80;29.90
19880;DHT22;10102;50.828;4.416;2022-08-11T16:01:41;57.40;30.10
19880;DHT22;10102;50.828;4.416;2022-08-11T16:04:29;57.30;30.00
19880;DHT22;10102;50.828;4.416;2022-08-11T16:07:10;57.10;30.30
19880;DHT22;10102;50.828;4.416;2022-08-11T16:09:58;56.10;30.00
19880;DHT22;10102;50.828;4.416;2022-08-11T16:12:29;55.70;30.00
19880;DHT22;10102;50.828;4.416;2022-08-11T16:15:00;55.30;30.30
19880;DHT22;10102;50.828;4.416;2022-08-11T16:17:48;54.80;30.30
19880;DHT22;10102;50.828;4.416;2022-08-11T16:20:19;54.80;30.30
19880;DHT22;10102;50.828;4.416;2022-08-11T16:22:48;54.00;30.60
19880;DHT22;10102;50.828;4.416;2022-08-11T16:25:18;54.40;30.70
19880;DHT22;10102;50.828;4.416;2022-08-11T16:27:50;54.40;31.10
19880;DHT22;10102;50.828;4.416;2022-08-11T16:30:16;54.40;30.60
19880;DHT22;10102;50.828;4.416;2022-08-11T16:32:45;54.50;30.70
19880;DHT22;10102;50.828;4.416;2022-08-11T16:35:23;54.20;30.50
19880;DHT22;10102;50.828;4.416;2022-08-11T16:38:09;53.70;30.70
19880;DHT22;10102;50.828;4.416;2022-08-11T16:40:56;53.70;30.60
19880;DHT22;10102;50.828;4.416;2022-08-11T16:43:25;53.50;30.70
19880;DHT22;10102;50.828;4.416;2022-08-11T16:46:21;53.50;30.80
19880;DHT22;10102;50.828;4.416;2022-08-11T16:49:11;52.60;30.80
19880;DHT22;10102;50.828;4.416;2022-08-11T16:51:38;51.80;31.40
19880;DHT22;10102;50.828;4.416;2022-08-11T16:54:03;51.50;31.90
19880;DHT22;10102;50.828;4.416;2022-08-11T16:56:38;51.20;32.20
19880;DHT22;10102;50.828;4.416;2022-08-11T16:59:25;50.90;32.20
19880;DHT22;10102;50.828;4.416;2022-08-11T17:02:01;50.00;32.60
19880;DHT22;10102;50.828;4.416;2022-08-11T17:04:48;48.30;33.40
19880;DHT22;10102;50.828;4.416;2022-08-11T17:07:36;46.20;34.70
19880;DHT22;10102;50.828;4.416;2022-08-11T17:10:29;44.30;36.50
19880;DHT22;10102;50.828;4.416;2022-08-11T17:13:17;42.50;38.40
19880;DHT22;10102;50.828;4.416;2022-08-11T17:15:49;41.40;39.00
19880;DHT22;10102;50.828;4.416;2022-08-11T17:19:05;40.20;39.70
19880;DHT22;10102;50.828;4.416;2022-08-11T17:21:37;40.00;41.00
19880;DHT22;10102;50.828;4.416;2022-08-11T17:24:25;39.40;41.20
19880;DHT22;10102;50.828;4.416;2022-08-11T17:26:53;38.80;41.90
19880;DHT22;10102;50.828;4.416;2022-08-11T17:29:53;37.90;42.40
19880;DHT22;10102;50.828;4.416;2022-08-11T17:35:13;37.10;53.60
19880;DHT22;10102;50.828;4.416;2022-08-11T17:38:07;37.00;43.90
19880;DHT22;10102;50.828;4.416;2022-08-11T17:41:00;36.80;43.80
19880;DHT22;10102;50.828;4.416;2022-08-11T17:43:44;36.70;44.60
19880;DHT22;10102;50.828;4.416;2022-08-11T17:46:28;36.50;44.80
19880;DHT22;10102;50.828;4.416;2022-08-11T17:49:14;36.40;45.10
19880;DHT22;10102;50.828;4.416;2022-08-11T17:51:43;36.00;54.30
19880;DHT22;10102;50.828;4.416;2022-08-11T17:54:30;36.00;46.00
19880;DHT22;10102;50.828;4.416;2022-08-11T17:57:15;35.90;46.50
19880;DHT22;10102;50.828;4.416;2022-08-11T18:00:03;35.30;55.70
19880;DHT22;10102;50.828;4.416;2022-08-11T18:02:32;35.30;56.00
19880;DHT22;10102;50.828;4.416;2022-08-11T18:05:23;35.20;47.00
19880;DHT22;10102;50.828;4.416;2022-08-11T18:07:53;36.10;47.50
19880;DHT22;10102;50.828;4.416;2022-08-11T18:10:39;34.80;46.80
19880;DHT22;10102;50.828;4.416;2022-08-11T18:13:30;34.80;47.40
19880;DHT22;10102;50.828;4.416;2022-08-11T18:16:17;34.60;47.90
19880;DHT22;10102;50.828;4.416;2022-08-11T18:19:02;34.40;48.30
19880;DHT22;10102;50.828;4.416;2022-08-11T18:21:48;34.20;48.50
19880;DHT22;10102;50.828;4.416;2022-08-11T18:24:39;34.20;48.80
19880;DHT22;10102;50.828;4.416;2022-08-11T18:27:27;35.20;49.70
19880;DHT22;10102;50.828;4.416;2022-08-11T18:30:13;33.90;49.50
19880;DHT22;10102;50.828;4.416;2022-08-11T18:33:00;33.80;50.30
19880;DHT22;10102;50.828;4.416;2022-08-11T18:35:49;33.70;50.00
19880;DHT22;10102;50.828;4.416;2022-08-11T18:38:35;33.50;50.30
19880;DHT22;10102;50.828;4.416;2022-08-11T18:41:21;33.50;60.40
19880;DHT22;10102;50.828;4.416;2022-08-11T18:44:06;33.20;60.70
19880;DHT22;10102;50.828;4.416;2022-08-11T18:46:52;33.20;51.20
19880;DHT22;10102;50.828;4.416;2022-08-11T18:49:39;33.10;51.80
19880;DHT22;10102;50.828;4.416;2022-08-11T18:52:24;33.10;51.70
19880;DHT22;10102;50.828;4.416;2022-08-11T18:55:16;33.00;52.00
19880;DHT22;10102;50.828;4.416;2022-08-11T18:58:06;32.80;52.50
19880;DHT22;10102;50.828;4.416;2022-08-11T19:00:55;32.70;52.80
19880;DHT22;10102;50.828;4.416;2022-08-11T19:03:42;32.60;53.30
19880;DHT22;10102;50.828;4.416;2022-08-11T19:06:28;32.40;63.90
19880;DHT22;10102;50.828;4.416;2022-08-11T19:09:14;32.20;53.40
19880;DHT22;10102;50.828;4.416;2022-08-11T19:12:00;32.30;53.20
19880;DHT22;10102;50.828;4.416;2022-08-11T19:14:45;32.10;54.00
19880;DHT22;10102;50.828;4.416;2022-08-11T19:17:31;31.90;53.80
19880;DHT22;10102;50.828;4.416;2022-08-11T19:20:19;32.00;67.60
19880;DHT22;10102;50.828;4.416;2022-08-11T19:23:05;31.70;54.90
19880;DHT22;10102;50.828;4.416;2022-08-11T19:25:51;31.70;66.90
19880;DHT22;10102;50.828;4.416;2022-08-11T19:28:38;31.60;67.50
19880;DHT22;10102;50.828;4.416;2022-08-11T19:31:24;31.50;56.00
19880;DHT22;10102;50.828;4.416;2022-08-11T19:34:09;31.30;55.70
19880;DHT22;10102;50.828;4.416;2022-08-11T19:36:53;30.90;56.00
19880;DHT22;10102;50.828;4.416;2022-08-11T19:39:40;31.10;56.30
19880;DHT22;10102;50.828;4.416;2022-08-11T19:42:25;31.10;56.80
19880;DHT22;10102;50.828;4.416;2022-08-11T19:45:11;30.90;69.60
19880;DHT22;10102;50.828;4.416;2022-08-11T19:47:56;30.90;57.30
19880;DHT22;10102;50.828;4.416;2022-08-11T19:50:40;34.90;60.00
19880;DHT22;10102;50.828;4.416;2022-08-11T19:53:26;30.70;58.20
19880;DHT22;10102;50.828;4.416;2022-08-11T19:56:12;30.70;58.20
19880;DHT22;10102;50.828;4.416;2022-08-11T19:58:58;30.60;58.40
19880;DHT22;10102;50.828;4.416;2022-08-11T20:01:43;30.60;58.80
19880;DHT22;10102;50.828;4.416;2022-08-11T20:04:27;30.50;59.30
19880;DHT22;10102;50.828;4.416;2022-08-11T20:07:12;30.40;59.10
19880;DHT22;10102;50.828;4.416;2022-08-11T20:09:58;30.10;59.70
19880;DHT22;10102;50.828;4.416;2022-08-11T20:12:44;30.10;73.80
19880;DHT22;10102;50.828;4.416;2022-08-11T20:15:29;30.00;60.40
19880;DHT22;10102;50.828;4.416;2022-08-11T20:18:14;30.00;60.30